createdAt,value
2016-12-07T00:00:23.293Z,31.48
2016-12-07T00:01:32.588Z,31.4
2016-12-07T00:02:42.229Z,31.38
2016-12-07T00:03:51.217Z,31.4
2016-12-07T00:05:00.202Z,31.49
2016-12-07T00:06:09.195Z,31.59
2016-12-07T00:07:18.515Z,31.48
2016-12-07T00:08:27.815Z,31.3
2016-12-07T00:09:36.820Z,31.49
2016-12-07T00:10:46.111Z,31.4
2016-12-07T00:11:55.136Z,31.49
2016-12-07T00:13:03.821Z,31.49
2016-12-07T00:14:12.821Z,31.49
2016-12-07T00:15:22.791Z,31.3
2016-12-07T00:16:32.814Z,31.49
2016-12-07T00:17:41.575Z,31.49
2016-12-07T00:18:50.567Z,31.49
2016-12-07T00:19:59.262Z,31.49
2016-12-07T00:21:09.176Z,31.4
2016-12-07T00:22:18.500Z,31.49
2016-12-07T00:23:27.198Z,31.49
2016-12-07T00:24:36.203Z,31.38
2016-12-07T00:25:45.506Z,31.3
2016-12-07T00:26:54.790Z,31.59
2016-12-07T00:28:03.806Z,31.48
2016-12-07T00:29:12.815Z,31.38
2016-12-07T00:30:22.430Z,31.49
2016-12-07T00:31:31.413Z,31.4
2016-12-07T00:32:40.103Z,31.58
2016-12-07T00:33:49.107Z,31.58
2016-12-07T00:34:58.287Z,31.48
2016-12-07T00:36:06.977Z,31.59
2016-12-07T00:37:15.654Z,31.59
2016-12-07T00:38:25.563Z,31.4
2016-12-07T00:39:34.857Z,31.4
2016-12-07T00:40:44.154Z,31.58
2016-12-07T00:41:53.741Z,31.4
2016-12-07T00:43:02.793Z,31.49
2016-12-07T00:44:11.805Z,31.49
2016-12-07T00:45:21.105Z,31.4
2016-12-07T00:46:29.804Z,31.4
2016-12-07T00:47:38.785Z,31.4
2016-12-07T00:48:48.072Z,31.49
2016-12-07T00:49:56.753Z,31.3
2016-12-07T00:51:05.451Z,31.4
2016-12-07T00:52:14.131Z,31.49
2016-12-07T00:53:23.115Z,31.48
2016-12-07T00:54:32.723Z,31.4
2016-12-07T00:55:41.414Z,31.4
2016-12-07T00:56:50.396Z,31.49
2016-12-07T00:57:59.690Z,31.49
2016-12-07T00:59:08.988Z,31.38
2016-12-07T01:00:18.297Z,31.49
2016-12-07T01:01:27.281Z,31.38
2016-12-07T01:02:35.982Z,31.49
2016-12-07T01:03:45.575Z,31.38
2016-12-07T01:04:54.585Z,31.4
2016-12-07T01:06:03.879Z,31.48
2016-12-07T01:07:12.859Z,31.49
2016-12-07T01:08:21.869Z,31.38
2016-12-07T01:09:30.847Z,31.49
2016-12-07T01:10:39.544Z,31.4
2016-12-07T01:11:48.225Z,31.49
2016-12-07T01:12:57.821Z,31.49
2016-12-07T01:14:06.821Z,31.48
2016-12-07T01:15:15.810Z,31.49
2016-12-07T01:16:24.517Z,31.4
2016-12-07T01:17:34.108Z,31.48
2016-12-07T01:18:43.400Z,31.48
2016-12-07T01:19:52.995Z,31.48
2016-12-07T01:21:02.597Z,31.38
2016-12-07T01:22:12.203Z,31.48
2016-12-07T01:23:21.182Z,31.38
2016-12-07T01:24:30.163Z,31.38
2016-12-07T01:25:38.866Z,31.58
2016-12-07T01:26:47.544Z,31.48
2016-12-07T01:27:57.146Z,31.38
2016-12-07T01:29:06.134Z,31.48
2016-12-07T01:30:15.130Z,31.58
2016-12-07T01:31:24.130Z,31.38
2016-12-07T01:32:33.120Z,31.58
2016-12-07T01:33:42.120Z,31.38
2016-12-07T01:34:50.810Z,31.58
2016-12-07T01:35:59.496Z,31.58
2016-12-07T01:37:08.794Z,31.48
2016-12-07T01:38:17.464Z,31.48
2016-12-07T01:39:26.763Z,31.58
2016-12-07T01:40:35.455Z,31.58
2016-12-07T01:41:44.135Z,31.58
2016-12-07T01:42:53.122Z,31.58
2016-12-07T01:44:02.109Z,31.48
2016-12-07T01:45:10.838Z,31.48
2016-12-07T01:46:19.525Z,31.58
2016-12-07T01:47:28.828Z,31.48
2016-12-07T01:48:38.127Z,31.58
2016-12-07T01:49:46.818Z,31.48
2016-12-07T01:50:55.501Z,31.29
2016-12-07T01:52:04.795Z,31.67
2016-12-07T01:53:13.490Z,31.58
2016-12-07T01:54:22.479Z,31.48
2016-12-07T01:55:31.489Z,31.58
2016-12-07T01:56:40.779Z,31.48
2016-12-07T01:57:50.079Z,31.48
2016-12-07T01:58:58.767Z,31.48
2016-12-07T02:00:07.451Z,31.58
2016-12-07T02:01:16.844Z,31.58
2016-12-07T02:02:25.540Z,31.58
2016-12-07T02:03:34.543Z,31.58
2016-12-07T02:04:43.213Z,31.58
2016-12-07T02:05:52.207Z,31.48
2016-12-07T02:07:00.891Z,31.58
2016-12-07T02:08:10.180Z,31.58
2016-12-07T02:09:18.858Z,31.58
2016-12-07T02:10:28.153Z,31.48
2016-12-07T02:11:37.450Z,31.38
2016-12-07T02:12:46.763Z,31.48
2016-12-07T02:13:56.089Z,31.58
2016-12-07T02:15:05.690Z,31.48
2016-12-07T02:16:14.370Z,31.48
2016-12-07T02:17:23.360Z,31.48
2016-12-07T02:18:32.383Z,31.48
2016-12-07T02:19:41.377Z,31.48
2016-12-07T02:20:50.369Z,31.58
2016-12-07T02:21:59.693Z,31.48
2016-12-07T02:23:08.464Z,31.48
2016-12-07T02:24:17.767Z,31.48
2016-12-07T02:25:26.454Z,31.38
2016-12-07T02:26:35.748Z,31.48
2016-12-07T02:27:44.735Z,31.48
2016-12-07T02:28:53.742Z,31.48
2016-12-07T02:30:03.358Z,31.48
2016-12-07T02:31:12.352Z,31.48
2016-12-07T02:32:21.366Z,31.48
2016-12-07T02:33:30.353Z,31.48
2016-12-07T02:34:39.949Z,31.48
2016-12-07T02:35:48.632Z,31.58
2016-12-07T02:36:57.320Z,31.48
2016-12-07T02:38:06.610Z,31.48
2016-12-07T02:39:15.295Z,31.48
2016-12-07T02:40:23.980Z,31.58
2016-12-07T02:41:32.661Z,31.58
2016-12-07T02:42:41.366Z,31.38
2016-12-07T02:43:50.080Z,31.48
2016-12-07T02:44:59.373Z,31.48
2016-12-07T02:46:08.378Z,31.48
2016-12-07T02:47:17.369Z,31.58
2016-12-07T02:48:26.372Z,31.48
2016-12-07T02:49:35.051Z,31.58
2016-12-07T02:51:15.817Z,31.48
2016-12-07T02:52:25.124Z,31.48
2016-12-07T02:53:33.808Z,31.58
2016-12-07T02:54:42.807Z,31.58
2016-12-07T02:55:52.091Z,31.48
2016-12-07T02:57:01.102Z,31.48
2016-12-07T02:58:09.789Z,31.48
2016-12-07T02:59:19.145Z,31.48
2016-12-07T03:00:28.153Z,31.48
2016-12-07T03:01:37.441Z,31.48
2016-12-07T03:02:46.735Z,31.38
2016-12-07T03:03:56.646Z,31.58
2016-12-07T03:05:05.653Z,31.48
2016-12-07T03:06:14.651Z,31.58
2016-12-07T03:07:23.649Z,31.58
2016-12-07T03:08:32.328Z,31.29
2016-12-07T03:09:41.623Z,31.48
2016-12-07T03:10:51.245Z,31.38
2016-12-07T03:11:59.950Z,31.58
2016-12-07T03:13:09.918Z,31.48
2016-12-07T03:14:18.595Z,31.58
2016-12-07T03:15:28.248Z,31.48
2016-12-07T03:16:36.955Z,31.38
2016-12-07T03:17:45.647Z,31.58
2016-12-07T03:18:54.639Z,31.48
2016-12-07T03:20:03.926Z,31.38
2016-12-07T03:21:12.761Z,31.48
2016-12-07T03:22:21.757Z,31.48
2016-12-07T03:23:31.046Z,31.48
2016-12-07T03:24:39.719Z,31.58
2016-12-07T03:25:48.739Z,31.38
2016-12-07T03:26:57.775Z,31.38
2016-12-07T03:28:06.756Z,31.38
2016-12-07T03:29:15.746Z,31.48
2016-12-07T03:30:24.431Z,31.38
2016-12-07T03:31:33.727Z,31.48
2016-12-07T03:32:43.020Z,31.48
2016-12-07T03:33:52.335Z,31.38
2016-12-07T03:35:01.327Z,31.29
2016-12-07T03:36:10.304Z,31.48
2016-12-07T03:37:19.632Z,31.29
2016-12-07T03:38:28.471Z,31.48
2016-12-07T03:39:37.768Z,31.38
2016-12-07T03:40:47.499Z,31.48
2016-12-07T03:41:56.665Z,31.38
2016-12-07T03:43:05.422Z,31.38
2016-12-07T03:44:14.712Z,31.38
2016-12-07T03:45:24.005Z,31.58
2016-12-07T03:46:32.998Z,31.48
2016-12-07T03:47:42.289Z,31.48
2016-12-07T03:48:51.584Z,31.38
2016-12-07T03:50:00.576Z,31.48
2016-12-07T03:51:09.562Z,31.38
2016-12-07T03:52:18.261Z,31.29
2016-12-07T03:53:27.285Z,31.29
2016-12-07T03:54:36.312Z,31.48
2016-12-07T03:55:45.906Z,31.38
2016-12-07T03:56:54.888Z,31.38
2016-12-07T03:58:03.883Z,31.38
2016-12-07T03:59:13.183Z,31.38
2016-12-07T04:00:22.779Z,31.48
2016-12-07T04:01:31.454Z,31.29
2016-12-07T04:02:40.136Z,31.38
2016-12-07T04:03:49.134Z,31.48
2016-12-07T04:04:58.745Z,31.2
2016-12-07T04:06:08.050Z,31.38
2016-12-07T04:07:16.889Z,31.38
2016-12-07T04:08:25.579Z,31.38
2016-12-07T04:09:34.885Z,31.38
2016-12-07T04:10:43.568Z,31.48
2016-12-07T04:11:52.248Z,31.38
2016-12-07T04:13:00.960Z,31.29
2016-12-07T04:14:09.637Z,31.48
2016-12-07T04:15:18.334Z,31.38
2016-12-07T04:16:27.321Z,31.29
2016-12-07T04:17:37.239Z,31.29
2016-12-07T04:18:46.276Z,31.29
2016-12-07T04:19:54.957Z,31.48
2016-12-07T04:21:04.556Z,31.48
2016-12-07T04:22:13.235Z,31.29
2016-12-07T04:23:22.223Z,31.38
2016-12-07T04:24:31.000Z,31.29
2016-12-07T04:25:39.982Z,31.29
2016-12-07T04:26:49.279Z,31.29
2016-12-07T04:27:58.349Z,31.29
2016-12-07T04:29:07.020Z,31.27
2016-12-07T04:30:15.711Z,31.48
2016-12-07T04:31:24.420Z,31.29
2016-12-07T04:32:33.413Z,31.29
2016-12-07T04:33:42.702Z,31.29
2016-12-07T04:34:51.987Z,31.29
2016-12-07T04:36:01.275Z,31.1
2016-12-07T04:37:10.276Z,31.2
2016-12-07T04:38:19.281Z,31
2016-12-07T04:39:27.973Z,31
2016-12-07T04:40:36.948Z,30.9
2016-12-07T04:41:46.246Z,30.71
2016-12-07T04:42:55.241Z,30.71
2016-12-07T04:44:04.556Z,30.54
2016-12-07T04:45:13.248Z,30.63
2016-12-07T04:46:22.240Z,30.25
2016-12-07T04:47:31.228Z,30.25
2016-12-07T04:48:40.232Z,30.44
2016-12-07T04:49:49.854Z,30.05
2016-12-07T04:50:58.850Z,30.15
2016-12-07T04:52:07.845Z,30.07
2016-12-07T04:53:17.449Z,30.07
2016-12-07T04:54:26.422Z,29.88
2016-12-07T04:55:35.726Z,29.69
2016-12-07T04:56:45.034Z,29.79
2016-12-07T04:57:54.024Z,29.69
2016-12-07T04:59:03.157Z,29.69
2016-12-07T05:00:12.455Z,29.3
2016-12-07T05:01:21.449Z,29.59
2016-12-07T05:02:30.117Z,29.79
2016-12-07T05:03:39.407Z,29.3
2016-12-07T05:04:49.008Z,29.7
2016-12-07T05:05:58.332Z,29.4
2016-12-07T05:07:07.325Z,29.32
2016-12-07T05:08:16.324Z,29.03
2016-12-07T05:09:25.307Z,29.13
2016-12-07T05:10:34.300Z,29.13
2016-12-07T05:11:42.980Z,29.22
2016-12-07T05:12:51.966Z,28.74
2016-12-07T05:14:01.252Z,29.32
2016-12-07T05:15:10.238Z,28.74
2016-12-07T05:16:19.554Z,29.03
2016-12-07T05:17:28.232Z,28.93
2016-12-07T05:18:37.829Z,28.95
2016-12-07T05:19:46.821Z,29.04
2016-12-07T05:20:56.159Z,28.85
2016-12-07T05:22:05.474Z,28.95
2016-12-07T05:23:14.463Z,28.75
2016-12-07T05:24:23.137Z,28.75
2016-12-07T05:25:32.128Z,28.56
2016-12-07T05:26:41.139Z,28.56
2016-12-07T05:27:50.435Z,28.66
2016-12-07T05:28:59.123Z,28.66
2016-12-07T05:30:08.427Z,28.75
2016-12-07T05:31:17.412Z,28.56
2016-12-07T05:32:26.401Z,28.56
2016-12-07T05:33:35.527Z,28.58
2016-12-07T05:34:44.509Z,28.48
2016-12-07T05:35:53.188Z,28.67
2016-12-07T05:37:01.876Z,28.58
2016-12-07T05:38:11.473Z,28.38
2016-12-07T05:39:20.507Z,28.38
2016-12-07T05:40:29.803Z,28.29
2016-12-07T05:41:38.818Z,28.29
2016-12-07T05:42:47.825Z,28.38
2016-12-07T05:43:57.122Z,28.29
2016-12-07T05:45:07.024Z,28.29
2016-12-07T05:46:16.035Z,28.29
2016-12-07T05:47:25.322Z,28.38
2016-12-07T05:48:34.311Z,28.38
2016-12-07T05:49:43.297Z,28.09
2016-12-07T05:50:52.449Z,28.09
2016-12-07T05:52:01.444Z,28.11
2016-12-07T05:53:10.124Z,27.61
2016-12-07T05:54:19.117Z,27.72
2016-12-07T05:55:28.117Z,27.72
2016-12-07T05:56:37.704Z,27.82
2016-12-07T05:57:46.686Z,27.72
2016-12-07T05:58:55.685Z,27.72
2016-12-07T06:00:04.684Z,27.72
2016-12-07T06:01:13.362Z,27.72
2016-12-07T06:02:22.452Z,27.82
2016-12-07T06:03:31.437Z,27.82
2016-12-07T06:04:40.464Z,27.72
2016-12-07T06:05:49.446Z,27.72
2016-12-07T06:06:58.432Z,27.82
2016-12-07T06:08:08.374Z,27.92
2016-12-07T06:09:17.666Z,27.92
2016-12-07T06:10:26.344Z,27.82
2016-12-07T06:11:35.349Z,27.72
2016-12-07T06:12:44.326Z,27.82
2016-12-07T06:13:53.920Z,27.72
2016-12-07T06:15:03.238Z,27.82
2016-12-07T06:16:12.839Z,27.82
2016-12-07T06:17:22.156Z,27.83
2016-12-07T06:18:31.138Z,27.93
2016-12-07T06:19:40.743Z,27.74
2016-12-07T06:20:50.057Z,27.93
2016-12-07T06:21:58.782Z,27.93
2016-12-07T06:23:07.776Z,27.83
2016-12-07T06:24:16.462Z,27.83
2016-12-07T06:25:26.062Z,27.83
2016-12-07T06:26:35.076Z,27.93
2016-12-07T06:27:43.764Z,27.55
2016-12-07T06:28:53.052Z,27.64
2016-12-07T06:30:02.356Z,27.83
2016-12-07T06:31:11.399Z,27.64
2016-12-07T06:32:20.409Z,27.55
2016-12-07T06:33:29.406Z,27.56
2016-12-07T06:34:38.385Z,27.55
2016-12-07T06:35:47.396Z,27.56
2016-12-07T06:36:57.026Z,27.56
2016-12-07T06:38:06.139Z,27.37
2016-12-07T06:39:15.446Z,27.56
2016-12-07T06:40:24.440Z,27.56
2016-12-07T06:41:34.037Z,27.56
2016-12-07T06:42:43.385Z,27.56
2016-12-07T06:43:52.081Z,27.56
2016-12-07T06:45:01.684Z,27.56
2016-12-07T06:46:10.981Z,27.56
2016-12-07T06:47:20.019Z,27.56
2016-12-07T06:48:28.854Z,27.66
2016-12-07T06:49:37.581Z,27.56
2016-12-07T06:50:46.566Z,27.56
2016-12-07T06:51:55.591Z,27.75
2016-12-07T06:53:04.307Z,27.85
2016-12-07T06:54:13.602Z,27.85
2016-12-07T06:55:22.299Z,27.75
2016-12-07T06:56:31.593Z,27.94
2016-12-07T06:57:40.588Z,27.75
2016-12-07T06:58:49.275Z,27.75
2016-12-07T06:59:58.416Z,27.94
2016-12-07T07:01:07.445Z,27.75
2016-12-07T07:02:16.131Z,28.33
2016-12-07T07:03:25.127Z,28.42
2016-12-07T07:04:34.118Z,28.41
2016-12-07T07:05:43.221Z,28.51
2016-12-07T07:06:52.224Z,28.7
2016-12-07T07:08:01.516Z,28.61
2016-12-07T07:09:10.812Z,28.51
2016-12-07T07:10:20.106Z,28.8
2016-12-07T07:11:29.236Z,28.51
2016-12-07T07:12:38.254Z,28.8
2016-12-07T07:13:47.619Z,28.89
2016-12-07T07:14:56.924Z,29.08
2016-12-07T07:16:05.611Z,28.99
2016-12-07T07:17:14.607Z,28.99
2016-12-07T07:18:23.315Z,28.97
2016-12-07T07:19:31.995Z,28.88
2016-12-07T07:20:41.599Z,29.55
2016-12-07T07:21:51.210Z,29.17
2016-12-07T07:23:00.372Z,29.27
2016-12-07T07:24:09.704Z,29.07
2016-12-07T07:25:18.385Z,29.27
2016-12-07T07:26:27.685Z,29.36
2016-12-07T07:27:36.383Z,29.27
2016-12-07T07:28:45.694Z,29.17
2016-12-07T07:29:54.381Z,29.65
2016-12-07T07:31:03.376Z,29.27
2016-12-07T07:32:12.698Z,29.74
2016-12-07T07:33:21.697Z,29.55
2016-12-07T07:34:31.183Z,29.65
2016-12-07T07:35:40.173Z,29.36
2016-12-07T07:36:48.872Z,29.93
2016-12-07T07:37:57.862Z,29.83
2016-12-07T07:39:07.173Z,29.83
2016-12-07T07:40:16.774Z,29.83
2016-12-07T07:41:25.517Z,30.11
2016-12-07T07:42:34.276Z,29.93
2016-12-07T07:43:43.662Z,30.11
2016-12-07T07:44:52.366Z,30.31
2016-12-07T07:46:01.487Z,29.83
2016-12-07T07:47:10.485Z,30.21
2016-12-07T07:48:19.213Z,30.31
2016-12-07T07:49:28.865Z,30.31
2016-12-07T07:50:37.573Z,29.93
2016-12-07T07:51:46.767Z,29.93
2016-12-07T07:52:55.860Z,30.21
2016-12-07T07:54:04.972Z,30.4
2016-12-07T07:55:13.972Z,30.4
2016-12-07T07:56:22.710Z,30.39
2016-12-07T07:57:31.936Z,30.29
2016-12-07T07:58:41.270Z,30.68
2016-12-07T07:59:50.274Z,30.58
2016-12-07T08:00:59.279Z,30.49
2016-12-07T08:02:07.983Z,30.58
2016-12-07T08:03:17.597Z,30.49
2016-12-07T08:04:26.951Z,30.49
2016-12-07T08:05:36.245Z,30.68
2016-12-07T08:06:44.957Z,30.68
2016-12-07T08:07:53.680Z,30.77
2016-12-07T08:09:02.680Z,30.58
2016-12-07T08:10:11.446Z,30.58
2016-12-07T08:11:20.439Z,30.58
2016-12-07T08:12:29.756Z,30.58
2016-12-07T08:13:39.049Z,30.77
2016-12-07T08:14:48.341Z,30.77
2016-12-07T08:15:57.650Z,30.87
2016-12-07T08:17:06.679Z,30.77
2016-12-07T08:18:15.700Z,30.87
2016-12-07T08:19:25.012Z,30.87
2016-12-07T08:20:34.617Z,30.66
2016-12-07T08:21:43.602Z,30.87
2016-12-07T08:22:52.623Z,30.68
2016-12-07T08:24:01.613Z,30.85
2016-12-07T08:25:10.302Z,30.95
2016-12-07T08:26:19.026Z,30.95
2016-12-07T08:27:27.732Z,30.87
2016-12-07T08:28:36.755Z,30.85
2016-12-07T08:29:46.062Z,30.95
2016-12-07T08:30:55.074Z,31.05
2016-12-07T08:32:04.429Z,30.85
2016-12-07T08:33:14.358Z,31.06
2016-12-07T08:34:23.686Z,30.95
2016-12-07T08:35:32.684Z,31.15
2016-12-07T08:36:41.689Z,30.95
2016-12-07T08:37:51.146Z,31.15
2016-12-07T08:38:59.865Z,31.05
2016-12-07T08:40:08.565Z,30.95
2016-12-07T08:41:18.193Z,31.15
2016-12-07T08:42:26.880Z,31.05
2016-12-07T08:43:36.043Z,31.05
2016-12-07T08:44:44.753Z,31.15
2016-12-07T08:45:54.073Z,30.95
2016-12-07T08:47:02.756Z,31.05
2016-12-07T08:48:11.759Z,31.05
2016-12-07T08:49:21.060Z,31.05
2016-12-07T08:50:30.658Z,30.85
2016-12-07T08:51:39.349Z,30.95
2016-12-07T08:52:48.033Z,30.95
2016-12-07T08:53:57.047Z,31.05
2016-12-07T08:55:05.846Z,31.05
2016-12-07T08:56:15.141Z,30.95
2016-12-07T08:57:23.826Z,30.95
2016-12-07T08:58:33.140Z,30.95
2016-12-07T08:59:42.497Z,30.95
2016-12-07T09:00:51.904Z,31.05
2016-12-07T09:02:00.912Z,30.95
2016-12-07T09:03:10.226Z,30.95
2016-12-07T09:04:19.223Z,31.05
2016-12-07T09:05:27.911Z,31.05
2016-12-07T09:06:37.207Z,30.95
2016-12-07T09:07:45.916Z,31.05
2016-12-07T09:08:54.912Z,31.05
2016-12-07T09:10:04.208Z,31.05
2016-12-07T09:11:13.530Z,31.05
2016-12-07T09:12:22.681Z,31.15
2016-12-07T09:13:32.607Z,31.05
2016-12-07T09:14:41.605Z,30.85
2016-12-07T09:15:50.295Z,30.85
2016-12-07T09:16:59.291Z,30.85
2016-12-07T09:18:08.746Z,30.95
2016-12-07T09:19:17.737Z,30.95
2016-12-07T09:20:26.433Z,30.85
2016-12-07T09:21:36.058Z,30.85
2016-12-07T09:22:45.052Z,30.85
2016-12-07T09:23:54.497Z,30.85
2016-12-07T09:25:03.175Z,30.76
2016-12-07T09:26:12.797Z,30.85
2016-12-07T09:27:22.104Z,30.95
2016-12-07T09:28:30.800Z,30.95
2016-12-07T09:29:40.515Z,31.05
2016-12-07T09:30:49.196Z,30.95
2016-12-07T09:31:58.177Z,30.85
2016-12-07T09:33:07.170Z,30.95
2016-12-07T09:34:16.488Z,30.95
2016-12-07T09:35:25.490Z,30.95
2016-12-07T09:36:34.480Z,30.95
2016-12-07T09:37:43.500Z,30.95
2016-12-07T09:38:52.506Z,30.85
2016-12-07T09:40:01.543Z,30.85
2016-12-07T09:41:11.169Z,30.85
2016-12-07T09:42:20.178Z,30.95
2016-12-07T09:43:29.494Z,30.95
2016-12-07T09:44:38.510Z,30.95
2016-12-07T09:45:47.853Z,30.76
2016-12-07T09:46:56.852Z,30.95
2016-12-07T09:48:06.483Z,30.76
2016-12-07T09:49:15.480Z,30.76
2016-12-07T09:50:24.498Z,30.95
2016-12-07T09:51:34.409Z,30.66
2016-12-07T09:52:43.901Z,30.66
2016-12-07T09:53:52.606Z,30.66
2016-12-07T09:55:01.318Z,30.76
2016-12-07T09:56:10.312Z,30.66
2016-12-07T09:57:19.634Z,30.76
2016-12-07T09:58:28.696Z,30.76
2016-12-07T09:59:37.388Z,30.76
2016-12-07T10:00:46.398Z,30.76
2016-12-07T10:01:55.398Z,30.76
2016-12-07T10:03:04.704Z,30.76
2016-12-07T10:04:14.049Z,30.85
2016-12-07T10:05:23.045Z,30.85
2016-12-07T10:06:31.733Z,30.85
2016-12-07T10:07:40.742Z,30.85
2016-12-07T10:08:49.735Z,30.76
2016-12-07T10:09:58.476Z,30.66
2016-12-07T10:11:07.208Z,30.76
2016-12-07T10:12:16.207Z,30.85
2016-12-07T10:13:24.907Z,30.66
2016-12-07T10:14:34.236Z,30.85
2016-12-07T10:15:42.983Z,30.85
2016-12-07T10:16:52.002Z,30.95
2016-12-07T10:18:00.696Z,30.85
2016-12-07T10:19:09.715Z,30.76
2016-12-07T10:20:18.419Z,30.85
2016-12-07T10:21:27.717Z,30.76
2016-12-07T10:22:36.413Z,30.85
2016-12-07T10:23:45.433Z,30.85
2016-12-07T10:24:54.452Z,30.85
2016-12-07T10:26:03.449Z,30.85
2016-12-07T10:27:13.356Z,30.85
2016-12-07T10:28:22.344Z,30.76
2016-12-07T10:29:31.353Z,30.85
2016-12-07T10:30:40.972Z,30.76
2016-12-07T10:31:49.654Z,30.85
2016-12-07T10:32:59.266Z,30.85
2016-12-07T10:34:08.883Z,30.76
2016-12-07T10:35:17.879Z,30.57
2016-12-07T10:36:27.196Z,30.66
2016-12-07T10:37:36.195Z,30.66
2016-12-07T10:38:45.286Z,30.66
2016-12-07T10:39:54.278Z,30.66
2016-12-07T10:41:03.291Z,30.76
2016-12-07T10:42:12.294Z,30.57
2016-12-07T10:43:21.271Z,30.76
2016-12-07T10:44:29.950Z,30.76
2016-12-07T10:45:38.665Z,30.76
2016-12-07T10:46:47.984Z,30.76
2016-12-07T10:47:57.280Z,30.57
2016-12-07T10:49:06.321Z,30.66
2016-12-07T10:50:15.633Z,30.76
2016-12-07T10:51:24.954Z,30.76
2016-12-07T10:52:34.259Z,30.66
2016-12-07T10:53:42.986Z,30.76
2016-12-07T10:54:52.299Z,30.66
2016-12-07T10:56:01.648Z,30.76
2016-12-07T10:57:10.964Z,30.57
2016-12-07T10:58:19.673Z,30.57
2016-12-07T10:59:28.388Z,30.57
2016-12-07T11:00:37.390Z,30.57
2016-12-07T11:01:46.837Z,30.76
2016-12-07T11:02:55.847Z,30.66
2016-12-07T11:04:04.866Z,30.76
2016-12-07T11:05:14.189Z,30.76
2016-12-07T11:06:23.209Z,30.47
2016-12-07T11:07:33.420Z,30.57
2016-12-07T11:08:42.178Z,30.76
2016-12-07T11:09:50.923Z,30.76
2016-12-07T11:11:00.246Z,30.57
2016-12-07T11:12:09.539Z,30.76
2016-12-07T11:13:18.547Z,30.76
2016-12-07T11:14:27.259Z,30.57
2016-12-07T11:15:36.651Z,30.76
2016-12-07T11:16:45.957Z,30.66
2016-12-07T11:17:54.661Z,30.66
2016-12-07T11:19:04.293Z,30.76
2016-12-07T11:20:13.021Z,30.66
2016-12-07T11:21:22.051Z,30.57
2016-12-07T11:22:30.750Z,30.66
2016-12-07T11:23:39.735Z,30.66
2016-12-07T11:24:49.645Z,30.76
2016-12-07T11:25:58.363Z,30.76
2016-12-07T11:27:07.405Z,30.66
2016-12-07T11:28:16.411Z,30.66
2016-12-07T11:29:25.725Z,30.66
2016-12-07T11:30:34.436Z,30.66
2016-12-07T11:31:44.040Z,30.47
2016-12-07T11:32:52.727Z,30.66
2016-12-07T11:34:01.771Z,30.76
2016-12-07T11:35:10.771Z,30.66
2016-12-07T11:36:19.553Z,30.76
2016-12-07T11:37:28.245Z,30.76
2016-12-07T11:38:36.951Z,30.76
2016-12-07T11:39:45.936Z,30.47
2016-12-07T11:40:54.632Z,30.76
2016-12-07T11:42:04.286Z,30.57
2016-12-07T11:43:13.612Z,30.66
2016-12-07T11:44:22.616Z,30.57
2016-12-07T11:45:31.315Z,30.76
2016-12-07T11:46:40.342Z,30.76
2016-12-07T11:47:50.106Z,30.76
2016-12-07T11:48:59.744Z,30.66
2016-12-07T11:50:09.054Z,30.57
2016-12-07T11:51:18.383Z,30.57
2016-12-07T11:52:27.374Z,30.57
2016-12-07T11:53:36.841Z,30.66
2016-12-07T11:54:45.573Z,30.57
2016-12-07T11:55:54.254Z,30.57
2016-12-07T11:57:03.278Z,30.76
2016-12-07T11:58:12.628Z,30.57
2016-12-07T11:59:22.221Z,30.57
2016-12-07T12:00:30.930Z,30.47
2016-12-07T12:01:39.929Z,30.57
2016-12-07T12:02:49.585Z,30.76
2016-12-07T12:03:58.608Z,30.57
2016-12-07T12:05:07.608Z,30.76
2016-12-07T12:06:16.665Z,30.57
2016-12-07T12:07:25.350Z,30.66
2016-12-07T12:08:34.336Z,30.57
2016-12-07T12:09:43.027Z,30.57
2016-12-07T12:10:51.746Z,30.66
2016-12-07T12:12:00.466Z,30.66
2016-12-07T12:13:09.179Z,30.57
2016-12-07T12:14:18.485Z,30.66
2016-12-07T12:15:27.493Z,30.57
2016-12-07T12:16:36.776Z,30.47
2016-12-07T12:17:45.786Z,30.47
2016-12-07T12:18:54.790Z,30.47
2016-12-07T12:20:03.488Z,30.66
2016-12-07T12:21:12.528Z,30.57
2016-12-07T12:22:21.261Z,30.76
2016-12-07T12:23:30.285Z,30.57
2016-12-07T12:24:39.297Z,30.85
2016-12-07T12:25:48.340Z,30.47
2016-12-07T12:26:57.701Z,30.57
2016-12-07T12:28:07.000Z,30.57
2016-12-07T12:29:15.996Z,30.57
2016-12-07T12:30:25.004Z,30.66
2016-12-07T12:31:33.697Z,30.74
2016-12-07T12:32:42.677Z,30.57
2016-12-07T12:33:51.992Z,30.57
2016-12-07T12:35:00.681Z,30.66
2016-12-07T12:36:09.691Z,30.66
2016-12-07T12:37:18.993Z,30.74
2016-12-07T12:38:27.987Z,30.57
2016-12-07T12:39:36.974Z,30.76
2016-12-07T12:40:45.675Z,30.76
2016-12-07T12:41:54.669Z,30.57
2016-12-07T12:43:03.973Z,30.76
2016-12-07T12:44:13.285Z,30.57
2016-12-07T12:45:21.982Z,30.57
2016-12-07T12:46:30.971Z,30.66
2016-12-07T12:47:39.657Z,30.65
2016-12-07T12:48:48.352Z,30.57
2016-12-07T12:49:57.351Z,30.65
2016-12-07T12:51:06.186Z,30.55
2016-12-07T12:52:15.502Z,30.57
2016-12-07T12:53:24.805Z,30.66
2016-12-07T12:54:33.509Z,30.66
2016-12-07T12:55:42.505Z,30.66
2016-12-07T12:56:51.901Z,30.66
2016-12-07T12:58:00.908Z,30.66
2016-12-07T12:59:09.607Z,30.66
2016-12-07T13:00:18.297Z,30.47
2016-12-07T13:01:28.245Z,30.65
2016-12-07T13:02:37.553Z,30.66
2016-12-07T13:03:46.546Z,30.66
2016-12-07T13:04:55.239Z,30.66
2016-12-07T13:06:04.252Z,30.57
2016-12-07T13:07:12.960Z,30.66
2016-12-07T13:08:22.938Z,30.66
2016-12-07T13:09:31.624Z,30.65
2016-12-07T13:10:40.620Z,30.66
2016-12-07T13:11:50.237Z,30.66
2016-12-07T13:12:59.927Z,30.66
2016-12-07T13:14:09.400Z,30.65
2016-12-07T13:15:18.401Z,30.66
2016-12-07T13:16:27.094Z,30.66
2016-12-07T13:17:36.423Z,30.66
2016-12-07T13:18:45.718Z,30.65
2016-12-07T13:19:54.457Z,30.66
2016-12-07T13:21:03.765Z,30.55
2016-12-07T13:22:13.110Z,30.65
2016-12-07T13:23:21.813Z,30.65
2016-12-07T13:24:31.115Z,30.55
2016-12-07T13:25:40.273Z,30.57
2016-12-07T13:26:49.310Z,30.65
2016-12-07T13:27:58.624Z,30.55
2016-12-07T13:29:07.312Z,30.66
2016-12-07T13:30:16.627Z,30.66
2016-12-07T13:31:25.656Z,30.55
2016-12-07T13:32:35.283Z,30.57
2016-12-07T13:33:44.031Z,30.66
2016-12-07T13:34:53.023Z,30.66
2016-12-07T13:36:01.713Z,30.66
2016-12-07T13:37:10.815Z,30.55
2016-12-07T13:38:19.810Z,30.65
2016-12-07T13:39:28.505Z,30.55
2016-12-07T13:40:37.552Z,30.66
2016-12-07T13:41:46.882Z,30.66
2016-12-07T13:42:55.858Z,30.65
2016-12-07T13:44:05.162Z,30.66
2016-12-07T13:45:14.150Z,30.65
2016-12-07T13:46:23.458Z,30.65
2016-12-07T13:47:32.769Z,30.66
2016-12-07T13:48:42.249Z,30.66
2016-12-07T13:49:51.572Z,30.57
2016-12-07T13:51:00.263Z,30.66
2016-12-07T13:52:10.174Z,30.66
2016-12-07T13:53:19.187Z,30.65
2016-12-07T13:54:28.230Z,30.66
2016-12-07T13:55:36.917Z,30.57
2016-12-07T13:56:45.910Z,30.65
2016-12-07T13:57:54.628Z,30.65
2016-12-07T13:59:03.644Z,30.66
2016-12-07T14:00:12.769Z,30.66
2016-12-07T14:01:21.490Z,30.46
2016-12-07T14:02:30.170Z,30.65
2016-12-07T14:03:39.483Z,30.65
2016-12-07T14:04:48.492Z,30.65
2016-12-07T14:05:57.493Z,30.65
2016-12-07T14:07:06.506Z,30.65
2016-12-07T14:08:15.187Z,30.47
2016-12-07T14:09:24.173Z,30.65
2016-12-07T14:10:33.766Z,30.55
2016-12-07T14:11:43.126Z,30.55
2016-12-07T14:12:52.478Z,30.65
2016-12-07T14:14:02.439Z,30.55
2016-12-07T14:15:11.190Z,30.55
2016-12-07T14:16:20.819Z,30.57
2016-12-07T14:17:30.305Z,30.46
2016-12-07T14:18:39.293Z,30.57
2016-12-07T14:19:48.590Z,30.55
2016-12-07T14:20:57.269Z,30.55
2016-12-07T14:22:06.589Z,30.46
2016-12-07T14:23:15.890Z,30.46
2016-12-07T14:24:24.887Z,30.55
2016-12-07T14:25:33.610Z,30.74
2016-12-07T14:26:42.301Z,30.55
2016-12-07T14:27:51.021Z,30.65
2016-12-07T14:28:59.825Z,30.74
2016-12-07T14:30:08.830Z,30.65
2016-12-07T14:31:17.540Z,30.65
2016-12-07T14:32:26.561Z,30.46
2016-12-07T14:33:35.546Z,30.65
2016-12-07T14:34:44.710Z,30.65
2016-12-07T14:35:54.623Z,30.74
2016-12-07T14:37:03.944Z,30.55
2016-12-07T14:38:12.948Z,30.65
2016-12-07T14:39:21.656Z,30.55
2016-12-07T14:40:31.004Z,30.65
2016-12-07T14:41:40.044Z,30.65
2016-12-07T14:42:49.062Z,30.46
2016-12-07T14:43:57.750Z,30.46
2016-12-07T14:45:06.747Z,30.65
2016-12-07T14:46:16.463Z,30.74
2016-12-07T14:47:25.503Z,30.74
2016-12-07T14:48:34.486Z,30.65
2016-12-07T14:49:43.189Z,30.65
2016-12-07T14:50:52.493Z,30.55